createdAt,value
2022-10-13T00:00:59.728Z,99244.63
2022-10-13T00:04:02.491Z,99264.00
2022-10-13T00:07:05.049Z,99251.50
2022-10-13T00:10:10.188Z,99246.47
2022-10-13T00:13:13.177Z,99262.34
2022-10-13T00:16:18.418Z,99267.84
2022-10-13T00:19:21.164Z,99264.44
2022-10-13T00:22:24.117Z,99267.91
2022-10-13T00:25:27.015Z,99263.38
2022-10-13T00:28:30.021Z,99258.66
2022-10-13T00:31:33.016Z,99257.66
2022-10-13T00:34:37.704Z,99246.25
2022-10-13T00:37:40.270Z,99244.50
2022-10-13T00:40:50.137Z,99265.06
2022-10-13T00:44:03.228Z,99255.38
2022-10-13T00:47:06.143Z,99258.31
2022-10-13T00:50:12.695Z,99252.88
2022-10-13T00:53:17.034Z,99251.25
2022-10-13T00:56:21.390Z,99249.59
2022-10-13T00:59:29.082Z,99245.16
2022-10-13T01:02:33.118Z,99243.50
2022-10-13T01:05:39.461Z,99228.72
2022-10-13T01:08:42.023Z,99211.94
2022-10-13T01:11:51.371Z,99244.78
2022-10-13T01:15:04.009Z,99254.53
2022-10-13T01:18:25.714Z,99241.03
2022-10-13T01:21:33.717Z,99251.78
2022-10-13T01:24:51.795Z,99242.75
2022-10-13T01:28:13.692Z,99250.69
2022-10-13T01:31:24.504Z,99244.38
2022-10-13T01:34:32.013Z,99226.66
2022-10-13T01:37:50.537Z,99248.91
2022-10-13T01:41:14.628Z,99249.97
2022-10-13T01:44:22.653Z,99249.97
2022-10-13T01:47:27.806Z,99230.63
2022-10-13T01:50:32.857Z,99166.28
2022-10-13T01:53:36.275Z,99247.31
2022-10-13T01:56:39.167Z,99250.59
2022-10-13T01:59:41.685Z,99237.69
2022-10-13T02:03:06.611Z,99235.00
2022-10-13T02:06:44.899Z,99228.59
2022-10-13T02:09:50.456Z,99228.72
2022-10-13T02:13:05.605Z,99225.16
2022-10-13T02:16:08.231Z,99230.59
2022-10-13T02:19:14.485Z,99203.88
2022-10-13T02:22:19.807Z,99222.50
2022-10-13T02:25:23.076Z,99218.91
2022-10-13T02:28:28.112Z,99216.34
2022-10-13T02:31:31.004Z,99222.72
2022-10-13T02:34:33.629Z,99218.16
2022-10-13T02:37:36.529Z,99216.44
2022-10-13T02:40:39.110Z,99207.81
2022-10-13T02:43:42.207Z,99220.47
2022-10-13T02:46:44.774Z,99227.00
2022-10-13T02:49:47.766Z,99173.56
2022-10-13T02:52:50.370Z,99221.94
2022-10-13T02:55:55.611Z,99216.44
2022-10-13T02:59:01.089Z,99233.63
2022-10-13T03:02:03.859Z,99232.16
2022-10-13T03:05:07.643Z,99234.28
2022-10-13T03:08:10.504Z,99217.69
2022-10-13T03:11:13.135Z,99239.00
2022-10-13T03:14:15.883Z,99220.56
2022-10-13T03:17:18.526Z,99232.09
2022-10-13T03:20:21.410Z,99231.34
2022-10-13T03:23:24.021Z,99238.63
2022-10-13T03:26:26.815Z,99228.03
2022-10-13T03:29:29.544Z,99226.31
2022-10-13T03:32:32.478Z,99228.16
2022-10-13T03:35:35.040Z,99222.87
2022-10-13T03:38:37.825Z,99215.91
2022-10-13T03:41:40.373Z,99223.84
2022-10-13T03:44:43.278Z,99224.75
2022-10-13T03:47:45.819Z,99228.34
2022-10-13T03:50:48.822Z,99218.72
2022-10-13T03:53:52.580Z,99216.03
2022-10-13T03:56:55.653Z,99220.66
2022-10-13T03:59:58.365Z,99215.28
2022-10-13T04:03:02.386Z,99209.88
2022-10-13T04:06:06.293Z,99215.34
2022-10-13T04:09:09.561Z,99214.44
2022-10-13T04:12:13.609Z,99202.88
2022-10-13T04:15:18.557Z,99214.47
2022-10-13T04:18:21.491Z,99206.41
2022-10-13T04:21:25.298Z,99204.69
2022-10-13T04:24:28.580Z,99190.53
2022-10-13T04:27:31.031Z,99206.47
2022-10-13T04:30:35.038Z,99206.28
2022-10-13T04:33:42.966Z,99195.53
2022-10-13T04:36:45.767Z,99211.50
2022-10-13T04:39:48.356Z,99216.34
2022-10-13T04:42:51.775Z,99208.28
2022-10-13T04:45:54.470Z,99203.84
2022-10-13T04:48:57.726Z,99203.91
2022-10-13T04:52:04.635Z,99208.41
2022-10-13T04:55:08.995Z,99216.53
2022-10-13T04:58:11.704Z,99202.13
2022-10-13T05:01:21.523Z,99208.41
2022-10-13T05:04:24.571Z,99205.72
2022-10-13T05:07:27.462Z,99206.66
2022-10-13T05:10:34.562Z,99206.84
2022-10-13T05:13:37.921Z,99204.94
2022-10-13T05:16:40.357Z,99214.47
2022-10-13T05:19:43.183Z,99214.13
2022-10-13T05:22:45.708Z,99209.91
2022-10-13T05:25:48.568Z,99195.78
2022-10-13T05:28:53.497Z,99204.44
2022-10-13T05:31:56.455Z,99195.72
2022-10-13T05:34:58.915Z,99213.28
2022-10-13T05:38:01.830Z,99211.31
2022-10-13T05:41:10.106Z,99210.31
2022-10-13T05:44:13.067Z,99213.84
2022-10-13T05:47:17.659Z,99217.38
2022-10-13T05:50:20.757Z,99190.75
2022-10-13T05:53:25.932Z,99214.78
2022-10-13T05:56:32.789Z,99220.53
2022-10-13T05:59:39.856Z,99218.28
2022-10-13T06:02:49.234Z,99230.03
2022-10-13T06:05:53.445Z,99232.81
2022-10-13T06:08:56.192Z,99237.31
2022-10-13T06:11:59.096Z,99239.13
2022-10-13T06:15:01.590Z,99240.88
2022-10-13T06:18:08.129Z,99236.28
2022-10-13T06:21:10.680Z,99245.09
2022-10-13T06:24:13.693Z,99227.19
2022-10-13T06:27:16.257Z,99240.91
2022-10-13T06:30:19.111Z,99242.38
2022-10-13T06:33:22.196Z,99249.97
2022-10-13T06:36:25.546Z,99240.75
2022-10-13T06:39:28.078Z,99250.16
2022-10-13T06:42:31.869Z,99250.75
2022-10-13T06:45:42.754Z,99252.06
2022-10-13T06:48:45.579Z,99231.25
2022-10-13T06:51:48.068Z,99244.75
2022-10-13T06:54:50.777Z,99244.31
2022-10-13T06:57:53.288Z,99244.91
2022-10-13T07:00:56.083Z,99249.22
2022-10-13T07:03:58.951Z,99244.41
2022-10-13T07:07:01.758Z,99246.75
2022-10-13T07:10:04.554Z,99244.00
2022-10-13T07:13:07.773Z,99244.97
2022-10-13T07:16:11.269Z,99229.09
2022-10-13T07:19:14.055Z,99240.06
2022-10-13T07:22:17.150Z,99243.06
2022-10-13T07:25:21.978Z,99227.66
2022-10-13T07:28:25.538Z,99244.88
2022-10-13T07:31:28.788Z,99244.31
2022-10-13T07:34:31.351Z,99251.16
2022-10-13T07:37:34.151Z,99251.22
2022-10-13T07:40:38.294Z,99245.69
2022-10-13T07:43:41.386Z,99244.47
2022-10-13T07:46:43.850Z,99238.41
2022-10-13T07:49:46.548Z,99242.16
2022-10-13T07:52:49.108Z,99242.75
2022-10-13T07:55:51.825Z,99243.84
2022-10-13T07:58:54.397Z,99243.84
2022-10-13T08:01:57.401Z,99238.56
2022-10-13T08:05:00.236Z,99249.50
2022-10-13T08:08:02.708Z,99238.87
2022-10-13T08:11:07.416Z,99247.41
2022-10-13T08:14:11.939Z,99242.81
2022-10-13T08:17:14.775Z,99239.19
2022-10-13T08:20:17.242Z,99197.59
2022-10-13T08:23:20.028Z,99238.13
2022-10-13T08:26:27.636Z,99246.50
2022-10-13T08:29:30.621Z,99239.81
2022-10-13T08:32:33.283Z,99242.47
2022-10-13T08:35:36.179Z,99236.59
2022-10-13T08:38:38.611Z,99232.97
2022-10-13T08:41:46.495Z,99236.66
2022-10-13T08:45:39.325Z,99229.03
2022-10-13T08:48:32.767Z,99228.50
2022-10-13T08:51:36.382Z,99230.94
2022-10-13T08:54:39.280Z,99224.34
2022-10-13T08:57:41.815Z,99223.13
2022-10-13T09:00:47.345Z,99228.19
2022-10-13T09:04:11.062Z,99206.88
2022-10-13T09:07:23.483Z,99224.34
2022-10-13T09:10:27.171Z,99223.63
2022-10-13T09:13:29.990Z,99225.31
2022-10-13T09:16:41.478Z,99212.47
2022-10-13T09:19:58.295Z,99222.94
2022-10-13T09:23:06.341Z,99222.87
2022-10-13T09:26:14.158Z,99219.34
2022-10-13T09:29:18.233Z,99221.97
2022-10-13T09:32:23.878Z,99218.56
2022-10-13T09:35:26.751Z,99209.41
2022-10-13T09:38:30.126Z,99181.97
2022-10-13T09:41:33.684Z,99211.31
2022-10-13T09:44:36.523Z,99216.19
2022-10-13T09:47:39.302Z,99211.75
2022-10-13T09:50:51.848Z,99216.78
2022-10-13T09:53:54.376Z,99215.19
2022-10-13T09:57:04.590Z,99213.84
2022-10-13T10:00:14.611Z,99210.44
2022-10-13T10:03:33.801Z,99213.66
2022-10-13T10:06:36.968Z,99202.50
2022-10-13T10:09:42.367Z,99202.28
2022-10-13T10:12:45.420Z,99208.75
2022-10-13T10:16:08.156Z,99196.81
2022-10-13T10:19:39.602Z,99185.37
2022-10-13T10:22:48.330Z,99184.09
2022-10-13T10:26:04.378Z,99183.56
2022-10-13T10:29:16.281Z,99180.91
2022-10-13T10:32:26.017Z,99169.87
2022-10-13T10:35:58.971Z,99167.56
2022-10-13T10:39:13.617Z,99166.00
2022-10-13T10:42:39.309Z,99162.09
2022-10-13T10:45:43.012Z,99154.41
2022-10-13T10:48:47.694Z,99156.97
2022-10-13T10:51:50.279Z,99150.22
2022-10-13T10:54:53.011Z,99153.50
2022-10-13T10:58:01.301Z,99154.41
2022-10-13T11:01:19.398Z,99142.06
2022-10-13T11:04:40.467Z,99142.56
2022-10-13T11:07:43.151Z,99104.63
2022-10-13T11:10:45.587Z,99124.28
2022-10-13T11:13:56.273Z,99128.00
2022-10-13T11:17:11.042Z,99116.81
2022-10-13T11:20:22.723Z,99121.12
2022-10-13T11:23:25.174Z,99109.19
2022-10-13T11:26:28.999Z,99110.56
2022-10-13T11:30:01.360Z,99101.19
2022-10-13T11:33:33.464Z,99108.00
2022-10-13T11:36:46.755Z,99094.53
2022-10-13T11:40:04.700Z,99090.12
2022-10-13T11:43:10.459Z,99088.50
2022-10-13T11:47:18.256Z,99090.56
2022-10-13T11:50:40.163Z,99078.72
2022-10-13T11:54:04.650Z,99076.41
2022-10-13T11:57:23.483Z,99063.94
2022-10-13T12:00:26.472Z,99065.91
2022-10-13T12:03:35.771Z,99070.41
2022-10-13T12:06:40.426Z,99059.38
2022-10-13T12:09:52.224Z,99053.03
2022-10-13T12:12:55.748Z,99056.56
2022-10-13T12:16:06.111Z,99057.09
2022-10-13T12:19:24.099Z,99057.38
2022-10-13T12:22:28.312Z,99057.41
2022-10-13T12:25:31.254Z,99041.53
2022-10-13T12:28:46.173Z,99047.53
2022-10-13T12:31:50.250Z,99040.09
2022-10-13T12:34:53.110Z,99021.72
2022-10-13T12:37:57.624Z,99032.00
2022-10-13T12:41:00.427Z,99043.44
2022-10-13T12:44:06.704Z,99036.44
2022-10-13T12:50:37.090Z,99023.06
2022-10-13T12:53:39.988Z,99029.66
2022-10-13T12:56:42.918Z,99024.44
2022-10-13T12:59:45.780Z,99019.69
2022-10-13T13:02:53.524Z,99021.56
2022-10-13T13:06:14.811Z,99018.22
2022-10-13T13:09:23.826Z,99019.03
2022-10-13T13:12:28.509Z,99013.31
2022-10-13T13:15:35.103Z,99010.63
2022-10-13T13:18:41.710Z,99012.63
2022-10-13T13:21:44.242Z,99009.44
2022-10-13T13:24:47.279Z,99004.31
2022-10-13T13:27:50.476Z,99006.34
2022-10-13T13:30:53.704Z,98992.28
2022-10-13T13:33:56.599Z,98993.94
2022-10-13T13:37:01.388Z,99004.34
2022-10-13T13:40:05.136Z,98996.66
2022-10-13T13:43:08.608Z,98996.25
2022-10-13T13:46:22.722Z,98989.50
2022-10-13T13:49:25.626Z,98982.63
2022-10-13T13:52:28.163Z,98982.56
2022-10-13T13:55:31.047Z,98980.06
2022-10-13T13:58:33.520Z,98981.97
2022-10-13T14:01:36.950Z,98985.38
2022-10-13T14:04:39.773Z,98976.16
2022-10-13T14:07:42.266Z,98982.59
2022-10-13T14:10:45.069Z,98984.66
2022-10-13T14:13:47.612Z,98982.28
2022-10-13T14:16:51.750Z,98985.72
2022-10-13T14:19:54.602Z,98977.84
2022-10-13T14:22:57.380Z,98981.78
2022-10-13T14:25:59.801Z,98984.16
2022-10-13T14:29:04.631Z,98980.88
2022-10-13T14:32:07.327Z,98981.16
2022-10-13T14:35:10.504Z,98974.75
2022-10-13T14:38:14.092Z,98961.25
2022-10-13T14:41:17.562Z,98969.50
2022-10-13T14:44:21.209Z,98972.53
2022-10-13T14:47:24.157Z,98978.25
2022-10-13T14:50:26.793Z,98959.47
2022-10-13T14:53:36.024Z,98968.59
2022-10-13T14:56:38.656Z,98968.88
2022-10-13T14:59:42.997Z,98970.31
2022-10-13T15:02:46.585Z,98968.84
2022-10-13T15:05:49.842Z,98981.38
2022-10-13T15:08:53.813Z,98973.56
2022-10-13T15:11:58.792Z,98967.66
2022-10-13T15:15:01.239Z,98968.19
2022-10-13T15:18:04.155Z,98968.84
2022-10-13T15:21:06.986Z,98969.31
2022-10-13T15:24:11.842Z,98968.97
2022-10-13T15:27:17.814Z,98972.16
2022-10-13T15:30:20.696Z,98961.09
2022-10-13T15:33:23.179Z,98970.72
2022-10-13T15:36:26.346Z,98964.78
2022-10-13T15:39:28.806Z,98961.69
2022-10-13T15:42:31.640Z,98960.12
2022-10-13T15:45:34.407Z,98957.84
2022-10-13T15:48:37.327Z,98960.84
2022-10-13T15:51:39.840Z,98957.03
2022-10-13T15:54:42.653Z,98958.28
2022-10-13T15:57:45.552Z,98951.34
2022-10-13T16:00:49.459Z,98948.34
2022-10-13T16:03:55.501Z,98950.63
2022-10-13T16:06:57.984Z,98950.19
2022-10-13T16:10:01.250Z,98952.53
2022-10-13T16:13:03.778Z,98954.97
2022-10-13T16:16:08.008Z,98950.22
2022-10-13T16:19:10.592Z,98954.28
2022-10-13T16:22:13.555Z,98951.19
2022-10-13T16:25:16.236Z,98945.97
2022-10-13T16:28:20.375Z,98955.41
2022-10-13T16:31:22.918Z,98954.91
2022-10-13T16:34:26.336Z,98958.41
2022-10-13T16:37:28.901Z,98960.53
2022-10-13T16:40:32.458Z,98951.16
2022-10-13T16:43:35.207Z,98954.13
2022-10-13T16:46:38.017Z,98944.66
2022-10-13T16:49:40.580Z,98956.72
2022-10-13T16:52:43.600Z,98949.97
2022-10-13T16:55:46.217Z,98949.28
2022-10-13T16:58:51.073Z,98955.63
2022-10-13T17:01:53.808Z,98952.78
2022-10-13T17:04:56.685Z,98953.72
2022-10-13T17:07:59.353Z,98950.97
2022-10-13T17:11:04.769Z,98955.41
2022-10-13T17:14:07.342Z,98961.72
2022-10-13T17:17:10.079Z,98966.94
2022-10-13T17:20:13.278Z,98964.41
2022-10-13T17:23:17.167Z,98958.34
2022-10-13T17:26:21.073Z,98965.97
2022-10-13T17:29:23.806Z,98960.69
2022-10-13T17:32:29.042Z,98956.94
2022-10-13T17:35:31.836Z,98959.97
2022-10-13T17:38:34.977Z,98957.31
2022-10-13T17:41:39.453Z,98948.47
2022-10-13T17:44:43.150Z,98957.50
2022-10-13T17:47:50.631Z,98953.75
2022-10-13T17:50:53.171Z,98961.12
2022-10-13T17:53:58.560Z,98957.50
2022-10-13T17:57:01.383Z,98958.50
2022-10-13T18:00:05.551Z,98957.84
2022-10-13T18:03:14.712Z,98951.06
2022-10-13T18:06:18.040Z,98947.69
2022-10-13T18:09:24.180Z,98946.44
2022-10-13T18:12:26.964Z,98903.56
2022-10-13T18:15:29.450Z,98954.97
2022-10-13T18:18:32.582Z,98943.06
2022-10-13T18:21:35.198Z,98934.28
2022-10-13T18:24:38.023Z,98944.00
2022-10-13T18:27:40.505Z,98938.53
2022-10-13T18:30:44.588Z,98947.72
2022-10-13T18:33:47.686Z,98942.81
2022-10-13T18:36:54.870Z,98940.75
2022-10-13T18:39:57.437Z,98943.72
2022-10-13T18:43:00.262Z,98947.44
2022-10-13T18:46:05.692Z,98947.50
2022-10-13T18:49:13.090Z,98942.25
2022-10-13T18:52:18.298Z,98941.53
2022-10-13T18:55:21.222Z,98922.84
2022-10-13T18:58:25.902Z,98873.56
2022-10-13T19:01:32.335Z,98937.66
2022-10-13T19:04:35.831Z,98937.78
2022-10-13T19:07:39.256Z,98938.72
2022-10-13T19:10:42.394Z,98934.06
2022-10-13T19:13:45.684Z,98934.06
2022-10-13T19:16:48.366Z,98926.97
2022-10-13T19:19:51.444Z,98929.62
2022-10-13T19:22:54.108Z,98922.31
2022-10-13T19:25:57.063Z,98933.25
2022-10-13T19:29:09.222Z,98929.62
2022-10-13T19:32:12.043Z,98929.47
2022-10-13T19:35:14.720Z,98936.44
2022-10-13T19:38:18.435Z,98930.06
2022-10-13T19:41:21.143Z,98929.34
2022-10-13T19:44:25.015Z,98930.56
2022-10-13T19:47:28.222Z,98930.91
2022-10-13T19:50:33.875Z,98922.09
2022-10-13T19:53:37.251Z,98925.19
2022-10-13T19:56:40.038Z,98930.81
2022-10-13T19:59:47.554Z,98938.22
2022-10-13T20:02:51.346Z,98934.13
2022-10-13T20:05:54.246Z,98941.53
2022-10-13T20:08:58.698Z,98942.53
2022-10-13T20:12:03.471Z,98936.38
2022-10-13T20:15:08.126Z,98938.16
2022-10-13T20:18:13.148Z,98938.03
2022-10-13T20:21:17.819Z,98932.63
2022-10-13T20:24:23.033Z,98919.69
2022-10-13T20:27:28.232Z,98933.94
2022-10-13T20:30:31.083Z,98932.34
2022-10-13T20:33:34.014Z,98933.53
2022-10-13T20:36:39.045Z,98940.31
2022-10-13T20:39:41.989Z,98944.31
2022-10-13T20:42:49.917Z,98918.09
2022-10-13T20:46:02.131Z,98934.16
2022-10-13T20:49:11.096Z,98916.91
2022-10-13T20:52:14.768Z,98938.09
2022-10-13T20:55:17.944Z,98942.84
2022-10-13T20:58:20.475Z,98925.94
2022-10-13T21:01:23.721Z,98929.56
2022-10-13T21:04:26.488Z,98927.84
2022-10-13T21:07:29.699Z,98912.94
2022-10-13T21:10:36.580Z,98924.31
2022-10-13T21:13:41.016Z,98931.66
2022-10-13T21:16:43.491Z,98926.25
2022-10-13T21:19:46.872Z,98928.00
2022-10-13T21:22:50.027Z,98927.94
2022-10-13T21:25:52.820Z,98899.03
2022-10-13T21:28:56.153Z,98925.56
2022-10-13T21:31:59.071Z,98918.59
2022-10-13T21:35:01.729Z,98916.81
2022-10-13T21:38:04.781Z,98907.91
2022-10-13T21:41:09.578Z,98920.59
2022-10-13T21:44:14.184Z,98911.66
2022-10-13T21:47:17.097Z,98898.47
2022-10-13T21:50:20.050Z,98884.41
2022-10-13T21:53:23.190Z,98913.53
2022-10-13T21:56:27.391Z,98913.53
2022-10-13T21:59:29.860Z,98915.41
2022-10-13T22:02:32.718Z,98898.78
2022-10-13T22:05:35.891Z,98912.97
2022-10-13T22:08:40.515Z,98901.47
2022-10-13T22:11:44.967Z,98904.22
2022-10-13T22:14:47.477Z,98902.53
2022-10-13T22:17:53.907Z,98908.84
2022-10-13T22:21:06.018Z,98902.53
2022-10-13T22:24:12.504Z,98886.78
2022-10-13T22:27:15.246Z,98905.34
2022-10-13T22:30:18.437Z,98907.16
2022-10-13T22:33:21.346Z,98902.78
2022-10-13T22:36:30.918Z,98904.63
2022-10-13T22:39:33.642Z,98902.06
2022-10-13T22:42:43.604Z,98893.31
2022-10-13T22:45:52.612Z,98895.16
2022-10-13T22:48:56.396Z,98897.84
2022-10-13T22:51:59.206Z,98877.56
2022-10-13T22:55:02.106Z,98888.84
2022-10-13T22:58:05.889Z,98889.63
2022-10-13T23:01:11.935Z,98887.94
2022-10-13T23:04:14.483Z,98891.50
2022-10-13T23:07:17.381Z,98887.16
2022-10-13T23:10:21.265Z,98881.13
2022-10-13T23:13:24.656Z,98886.69
2022-10-13T23:16:30.058Z,98879.53
2022-10-13T23:19:32.829Z,98886.81
2022-10-13T23:22:35.307Z,98890.44
2022-10-13T23:25:38.160Z,98860.34
2022-10-13T23:28:41.318Z,98828.72
2022-10-13T23:31:44.108Z,98879.63
2022-10-13T23:34:46.626Z,98878.78
2022-10-13T23:37:52.714Z,98872.66
2022-10-13T23:40:55.580Z,98878.97
2022-10-13T23:43:58.840Z,98880.03
2022-10-13T23:47:01.445Z,98880.22
2022-10-13T23:50:04.844Z,98861.84
2022-10-13T23:53:07.959Z,98882.19
2022-10-13T23:56:11.902Z,98878.72
2022-10-13T23:59:14.511Z,98872.56
